Time;durP1;ratioP1;P1;durP2;ratioP2;P2;SDS_P1;SDS_P2;PMS_P1;PMS_P2;Temp;Humidity;BMP_temperature;BMP_pressure;BME280_temperature;BME280_humidity;BME280_pressure;Samples;Min_cycle;Max_cycle;Signal;HPM_P1;HPM_P2
2022/05/28 00:01:26;;;;;;;16.20;3.25;;;;;;;10.71;70.09;102174.47;4963718;28;20122;-76
2022/05/28 00:03:53;;;;;;;17.15;3.65;;;;;;;10.69;70.28;102171.88;4969112;28;20050;-76
2022/05/28 00:06:22;;;;;;;10.63;3.08;;;;;;;10.68;71.84;102167.56;4970189;28;20455;-75
2022/05/28 00:08:48;;;;;;;10.23;3.05;;;;;;;10.67;70.87;102171.88;4969852;28;20190;-76
2022/05/28 00:11:20;;;;;;;12.25;3.25;;;;;;;10.67;71.23;102163.22;4967977;28;20490;-76
2022/05/28 00:13:46;;;;;;;13.48;3.38;;;;;;;10.66;72.04;102164.97;4963568;28;20039;-76
2022/05/28 00:16:13;;;;;;;19.80;3.85;;;;;;;10.64;70.99;102160.66;4966005;28;20552;-76
2022/05/28 00:18:40;;;;;;;21.85;3.75;;;;;;;10.63;71.37;102154.63;4980281;28;20034;-76
2022/05/28 00:21:07;;;;;;;12.45;3.67;;;;;;;10.61;71.03;102153.75;4961877;28;20031;-76
2022/05/28 00:23:32;;;;;;;13.88;3.53;;;;;;;10.66;73.46;102159.78;4969360;28;20514;-76
2022/05/28 00:25:57;;;;;;;14.23;3.45;;;;;;;10.67;71.85;102160.63;4962223;28;20034;-75
2022/05/28 00:28:23;;;;;;;13.60;3.63;;;;;;;10.67;71.24;102156.31;4983440;28;20216;-76
2022/05/28 00:30:48;;;;;;;12.93;4.13;;;;;;;10.68;73.27;102157.19;4967346;28;20374;-76
2022/05/28 00:33:14;;;;;;;13.30;4.05;;;;;;;10.65;71.29;102150.25;4971180;28;20038;-76
2022/05/28 00:35:40;;;;;;;11.52;3.33;;;;;;;10.68;71.44;102154.59;4972367;28;20097;-76
2022/05/28 00:38:06;;;;;;;12.85;4.10;;;;;;;10.68;71.54;102154.59;4981795;28;20037;-76
2022/05/28 00:40:31;;;;;;;18.60;4.18;;;;;;;10.71;71.93;102149.41;4962208;28;20502;-76
2022/05/28 00:42:59;;;;;;;12.68;3.88;;;;;;;10.72;72.60;102140.72;4965558;28;20034;-76
2022/05/28 00:45:24;;;;;;;15.93;4.30;;;;;;;10.79;73.00;102147.63;4981606;28;20506;-76
2022/05/28 00:47:53;;;;;;;15.88;4.75;;;;;;;10.80;72.44;102141.56;4968503;28;20102;-75
2022/05/28 00:50:19;;;;;;;16.30;5.15;;;;;;;10.83;72.41;102131.19;4967891;28;21557;-76
2022/05/28 00:52:45;;;;;;;14.15;4.28;;;;;;;10.90;73.67;102137.22;4964186;28;20032;-75
2022/05/28 00:55:11;;;;;;;17.73;4.70;;;;;;;10.91;72.74;102138.94;4967435;28;20031;-76
2022/05/28 00:57:41;;;;;;;19.55;4.30;;;;;;;10.93;72.34;102139.78;4966267;28;20129;-75
2022/05/28 01:00:10;;;;;;;11.98;4.10;;;;;;;10.92;71.51;102135.47;4964314;28;20555;-76
2022/05/28 01:02:54;;;;;;;16.02;4.70;;;;;;;10.93;72.86;102138.06;4963464;28;20043;-76
2022/05/28 01:05:23;;;;;;;16.30;4.50;;;;;;;10.93;72.87;102143.25;4969234;28;20035;-76
2022/05/28 01:08:15;;;;;;;14.73;4.10;;;;;;;10.92;72.45;102135.47;4967976;28;20023;-76
2022/05/28 01:11:07;;;;;;;15.77;4.05;;;;;;;10.92;74.40;102127.69;4974280;28;20085;-76
2022/05/28 01:13:50;;;;;;;15.77;4.13;;;;;;;10.88;72.14;102132.03;4966432;28;20058;-76
2022/05/28 01:16:27;;;;;;;12.50;3.83;;;;;;;10.86;73.21;102127.72;4995699;28;20035;-76
2022/05/28 01:19:07;;;;;;;15.32;3.88;;;;;;;10.83;72.19;102133.78;4954997;28;20055;-76
2022/05/28 01:21:55;;;;;;;12.02;3.65;;;;;;;10.80;73.48;102125.16;4957282;28;20035;-76
2022/05/28 01:24:36;;;;;;;12.57;3.78;;;;;;;10.78;72.69;102130.34;4973339;28;20039;-76
2022/05/28 01:27:08;;;;;;;12.00;3.80;;;;;;;10.79;75.48;102124.28;4969169;28;20082;-76
2022/05/28 01:29:46;;;;;;;13.20;4.05;;;;;;;10.76;74.49;102131.22;4963689;28;20062;-76
2022/05/28 01:32:13;;;;;;;15.45;4.10;;;;;;;10.71;75.48;102135.56;4962257;28;20205;-76
2022/05/28 01:34:40;;;;;;;9.98;3.80;;;;;;;10.64;76.14;102127.78;4968002;28;20034;-76
2022/05/28 01:37:06;;;;;;;13.20;4.40;;;;;;;10.60;76.44;102130.41;4970394;28;20075;-76
2022/05/28 01:39:32;;;;;;;14.60;4.70;;;;;;;10.55;76.13;102133.03;4970486;28;20030;-76
2022/05/28 01:41:59;;;;;;;12.43;4.53;;;;;;;10.51;75.15;102122.66;4968186;28;20073;-76
2022/05/28 01:44:26;;;;;;;13.43;4.60;;;;;;;10.48;75.27;102130.44;4978032;28;20027;-76
2022/05/28 01:46:53;;;;;;;14.35;4.20;;;;;;;10.47;76.08;102127.00;4972736;28;20031;-76
2022/05/28 01:49:21;;;;;;;20.23;4.55;;;;;;;10.44;74.76;102124.41;4968307;28;20089;-76
2022/05/28 01:51:54;;;;;;;13.40;4.45;;;;;;;10.43;74.71;102130.47;4959018;28;20034;-76
2022/05/28 01:54:25;;;;;;;14.07;4.00;;;;;;;10.43;76.20;102122.69;4969805;28;20081;-76
2022/05/28 01:56:53;;;;;;;16.77;4.05;;;;;;;10.40;76.87;102132.19;4967381;28;20126;-76
2022/05/28 01:59:36;;;;;;;16.17;4.22;;;;;;;10.43;76.64;102129.59;4971478;28;20038;-76
2022/05/28 02:02:09;;;;;;;15.43;4.03;;;;;;;10.41;77.33;102142.56;4964186;28;20520;-76
2022/05/28 02:04:36;;;;;;;16.65;4.20;;;;;;;10.39;77.97;102133.06;4968090;28;20135;-76
2022/05/28 02:07:04;;;;;;;14.00;4.10;;;;;;;10.39;77.15;102140.84;4969445;28;20393;-76
2022/05/28 02:09:37;;;;;;;14.70;4.47;;;;;;;10.34;77.87;102129.63;4962946;28;20026;-76
2022/05/28 02:12:28;;;;;;;9.35;3.38;;;;;;;10.34;77.21;102134.81;4972545;28;20015;-76
2022/05/28 02:15:21;;;;;;;10.82;3.83;;;;;;;10.32;77.78;102132.22;4956476;28;20039;-76
2022/05/28 02:17:49;;;;;;;13.80;4.07;;;;;;;10.26;78.71;102133.09;4970142;28;20106;-76
2022/05/28 02:20:28;;;;;;;13.35;4.00;;;;;;;10.24;78.60;102131.34;4986471;28;20493;-76
2022/05/28 02:23:19;;;;;;;10.45;3.58;;;;;;;10.22;78.32;102135.69;4970182;28;20037;-76
2022/05/28 02:25:51;;;;;;;14.43;4.05;;;;;;;10.20;79.58;102116.69;4975986;28;20042;-76
2022/05/28 02:28:17;;;;;;;12.95;4.20;;;;;;;10.15;78.39;102114.09;4971657;28;20161;-76
2022/05/28 02:30:53;;;;;;;15.13;3.88;;;;;;;10.14;77.37;102112.34;4970757;28;20031;-76
2022/05/28 02:33:19;;;;;;;11.55;3.75;;;;;;;10.17;79.90;102116.69;4977107;28;20494;-76
2022/05/28 02:35:45;;;;;;;12.00;4.22;;;;;;;10.14;80.29;102107.16;5001781;28;20031;-76
2022/05/28 02:38:15;;;;;;;10.55;3.88;;;;;;;10.12;79.77;102110.63;4971497;28;20033;-76
2022/05/28 02:40:41;;;;;;;13.70;4.85;;;;;;;10.07;80.02;102102.00;4971797;28;20022;-76
2022/05/28 02:43:06;;;;;;;9.30;4.07;;;;;;;10.04;80.05;102107.16;4984873;28;20393;-76
2022/05/28 02:45:32;;;;;;;15.85;4.38;;;;;;;9.98;79.87;102099.41;4969821;28;20073;-76
2022/05/28 02:47:57;;;;;;;15.75;4.72;;;;;;;9.99;80.90;102106.31;4966554;28;20027;-76
2022/05/28 02:50:28;;;;;;;11.43;4.43;;;;;;;9.94;80.63;102098.56;4970293;28;20022;-76
2022/05/28 02:52:55;;;;;;;14.98;4.93;;;;;;;9.85;79.76;102099.41;4967302;28;20313;-76
2022/05/28 02:55:21;;;;;;;12.27;4.45;;;;;;;9.84;80.88;102095.09;4960313;28;20031;-76
2022/05/28 02:57:46;;;;;;;11.68;4.20;;;;;;;9.80;81.24;102092.53;4969387;28;20050;-76
2022/05/28 03:00:14;;;;;;;14.67;4.47;;;;;;;9.82;81.60;102096.00;4963627;28;20019;-76
2022/05/28 03:02:41;;;;;;;16.50;4.35;;;;;;;9.78;81.55;102094.25;4960042;28;20322;-76
2022/05/28 03:05:07;;;;;;;9.80;4.10;;;;;;;9.76;81.56;102098.56;4969296;28;20117;-76
2022/05/28 03:07:32;;;;;;;13.07;4.72;;;;;;;9.74;81.88;102101.16;4965907;28;20088;-76
2022/05/28 03:09:58;;;;;;;13.85;4.40;;;;;;;9.74;82.19;102101.16;4968830;28;20506;-76
2022/05/28 03:12:23;;;;;;;18.70;4.95;;;;;;;9.74;82.47;102101.16;4962465;28;20088;-76
2022/05/28 03:14:48;;;;;;;15.30;4.68;;;;;;;9.74;82.46;102101.16;4977782;28;20562;-76
2022/05/28 03:17:14;;;;;;;15.32;4.32;;;;;;;9.73;81.51;102116.69;4962000;28;20097;-76
2022/05/28 03:19:39;;;;;;;12.73;4.32;;;;;;;9.76;83.20;102112.38;4968105;28;20378;-76
2022/05/28 03:22:05;;;;;;;15.17;3.97;;;;;;;9.73;82.75;102106.34;4966966;28;20388;-76
2022/05/28 03:24:30;;;;;;;12.38;4.05;;;;;;;9.76;82.84;102120.13;4966479;28;20385;-76
2022/05/28 03:26:57;;;;;;;14.23;4.00;;;;;;;9.75;83.06;102109.78;4967066;28;20030;-76
2022/05/28 03:29:24;;;;;;;13.48;4.38;;;;;;;9.76;83.32;102121.84;4966668;28;20607;-76
2022/05/28 03:31:49;;;;;;;10.63;4.00;;;;;;;9.79;83.88;102116.69;4975767;28;20030;-76
2022/05/28 03:34:15;;;;;;;12.98;4.13;;;;;;;9.77;84.09;102113.22;4960896;28;20030;-76
2022/05/28 03:36:40;;;;;;;16.63;4.40;;;;;;;9.76;84.16;102112.38;4987792;28;20072;-78
2022/05/28 03:39:05;;;;;;;10.17;3.30;;;;;;;9.74;84.30;102119.28;4970620;28;20293;-77
2022/05/28 03:41:31;;;;;;;13.93;3.80;;;;;;;9.70;83.53;102117.53;4971022;28;20278;-76
2022/05/28 03:43:57;;;;;;;12.00;3.30;;;;;;;9.72;84.45;102122.72;4968157;28;20773;-76
2022/05/28 03:46:32;;;;;;;13.70;3.35;;;;;;;9.73;84.58;102119.28;4969354;28;20054;-76
2022/05/28 03:49:18;;;;;;;9.48;3.25;;;;;;;9.74;84.24;102118.44;4966151;28;20023;-76
2022/05/28 03:51:43;;;;;;;12.75;3.58;;;;;;;9.77;84.80;102115.81;4969852;28;20037;-76
2022/05/28 03:54:09;;;;;;;11.73;3.30;;;;;;;9.76;84.82;102117.53;4967581;28;20031;-76
2022/05/28 03:56:39;;;;;;;14.77;3.00;;;;;;;9.77;85.12;102116.69;4967167;28;20755;-76
2022/05/28 03:59:05;;;;;;;11.73;3.33;;;;;;;9.77;85.21;102121.00;4984654;28;20315;-76
2022/05/28 04:01:32;;;;;;;11.65;3.28;;;;;;;9.80;85.46;102118.41;4969340;28;20106;-76
2022/05/28 04:03:57;;;;;;;12.45;3.58;;;;;;;9.80;85.70;102124.47;4969258;28;20074;-76
2022/05/28 04:06:23;;;;;;;14.30;3.60;;;;;;;9.83;86.03;102123.59;4969303;28;20035;-76
2022/05/28 04:08:48;;;;;;;10.30;3.58;;;;;;;9.88;85.79;102127.06;4970404;28;20092;-76
2022/05/28 04:11:14;;;;;;;12.82;3.10;;;;;;;9.90;86.02;102126.19;4970545;28;20420;-76
2022/05/28 04:13:39;;;;;;;9.30;3.40;;;;;;;9.93;85.85;102127.03;4967363;28;20026;-76
2022/05/28 04:16:05;;;;;;;11.88;3.53;;;;;;;9.96;86.50;102130.50;4966133;28;20058;-76
2022/05/28 04:18:30;;;;;;;9.75;3.05;;;;;;;9.98;85.52;102139.13;4967096;28;20039;-76
2022/05/28 04:20:55;;;;;;;12.23;2.70;;;;;;;10.01;86.04;102135.69;4969206;28;20085;-76
2022/05/28 04:23:21;;;;;;;12.13;3.20;;;;;;;10.01;86.24;102136.53;4971065;28;20027;-76
2022/05/28 04:25:46;;;;;;;13.48;3.50;;;;;;;10.04;85.44;102136.53;4967378;28;20520;-76
2022/05/28 04:28:11;;;;;;;12.97;2.80;;;;;;;10.08;86.63;102138.28;4958971;28;20039;-76
2022/05/28 04:30:37;;;;;;;13.07;2.80;;;;;;;10.13;87.09;102138.25;4993149;28;20290;-76
2022/05/28 04:33:02;;;;;;;10.90;2.92;;;;;;;10.17;86.36;102145.19;4975161;28;20050;-76
2022/05/28 04:35:28;;;;;;;11.27;2.45;;;;;;;10.25;87.34;102141.72;4967916;28;20410;-76
2022/05/28 04:37:54;;;;;;;12.25;2.78;;;;;;;10.32;86.33;102146.88;4990489;28;20409;-76
2022/05/28 04:40:19;;;;;;;18.55;2.80;;;;;;;10.41;87.58;102149.47;4968217;28;20031;-76
2022/05/28 04:42:44;;;;;;;10.75;2.67;;;;;;;10.47;87.69;102144.28;4962893;28;20094;-76
2022/05/28 04:45:10;;;;;;;10.00;2.37;;;;;;;10.52;87.44;102145.13;4968310;28;20033;-76
2022/05/28 04:47:35;;;;;;;10.43;2.55;;;;;;;10.59;87.48;102150.28;4969744;28;20360;-76
2022/05/28 04:50:00;;;;;;;12.50;2.53;;;;;;;10.62;86.50;102147.69;4957938;28;20042;-76
2022/05/28 04:52:26;;;;;;;15.02;3.10;;;;;;;10.69;87.20;102151.13;4971988;28;20023;-76
2022/05/28 04:54:51;;;;;;;12.45;2.45;;;;;;;10.74;87.95;102145.91;4962158;28;20035;-76
2022/05/28 04:57:16;;;;;;;13.17;2.93;;;;;;;10.78;86.60;102147.66;4967813;28;20129;-76
2022/05/28 04:59:42;;;;;;;11.23;2.50;;;;;;;10.85;88.13;102151.97;4967781;28;20816;-76
2022/05/28 05:02:08;;;;;;;11.50;2.50;;;;;;;10.90;87.00;102151.06;4959804;28;20321;-76
2022/05/28 05:04:33;;;;;;;13.80;2.70;;;;;;;10.96;88.02;102150.16;4971241;28;20042;-76
2022/05/28 05:06:59;;;;;;;16.35;3.35;;;;;;;10.97;85.27;102155.34;4971749;28;20114;-77
2022/05/28 05:09:24;;;;;;;13.10;2.35;;;;;;;11.04;84.96;102162.25;4961041;28;20041;-76
2022/05/28 05:11:49;;;;;;;11.80;2.30;;;;;;;11.09;84.95;102163.06;4972840;28;20065;-76
2022/05/28 05:14:15;;;;;;;15.02;2.20;;;;;;;11.17;82.74;102170.84;4966885;28;20041;-76
2022/05/28 05:16:40;;;;;;;11.35;2.40;;;;;;;11.35;81.72;102160.34;4963313;28;20042;-76
2022/05/28 05:19:06;;;;;;;13.38;1.98;;;;;;;11.46;83.37;102170.69;4969448;28;20023;-76
2022/05/28 05:21:31;;;;;;;10.95;2.17;;;;;;;11.52;83.96;102164.59;4961854;28;20399;-76
2022/05/28 05:23:57;;;;;;;11.70;2.33;;;;;;;11.53;83.07;102164.56;4968514;28;20023;-76
2022/05/28 05:26:22;;;;;;;6.43;2.30;;;;;;;11.54;82.70;102166.28;4973504;28;20649;-76
2022/05/28 05:28:49;;;;;;;13.73;2.60;;;;;;;11.55;80.89;102165.41;4961005;28;20481;-76
2022/05/28 05:31:14;;;;;;;11.10;1.83;;;;;;;11.58;81.29;102167.13;4965312;28;20054;-76
2022/05/28 05:33:40;;;;;;;8.55;1.73;;;;;;;11.64;81.37;102165.34;4975996;28;20446;-76
2022/05/28 05:36:06;;;;;;;9.43;1.92;;;;;;;11.70;79.06;102164.44;4960443;28;20078;-77
2022/05/28 05:38:31;;;;;;;8.68;1.70;;;;;;;11.74;79.50;102166.16;4968216;28;20035;-76
2022/05/28 05:40:57;;;;;;;7.88;1.80;;;;;;;11.78;78.58;102173.94;4972916;28;20023;-77
2022/05/28 05:43:22;;;;;;;7.47;1.40;;;;;;;11.83;77.56;102164.38;4965650;28;20023;-76
2022/05/28 05:45:56;;;;;;;8.63;1.57;;;;;;;11.85;78.96;102173.03;4962639;28;20534;-76
2022/05/28 05:48:22;;;;;;;7.23;1.77;;;;;;;11.91;76.55;102171.25;4969029;28;20933;-76
2022/05/28 05:50:47;;;;;;;8.98;1.70;;;;;;;11.99;76.81;102172.91;4962542;28;20393;-76
2022/05/28 05:53:13;;;;;;;5.63;1.55;;;;;;;12.08;76.30;102172.81;4957798;28;20049;-77
2022/05/28 05:55:39;;;;;;;11.52;1.70;;;;;;;12.25;75.27;102177.88;4965665;28;20038;-76
2022/05/28 05:58:04;;;;;;;7.28;1.48;;;;;;;12.39;74.40;102180.34;4968568;28;20066;-76
2022/05/28 06:00:30;;;;;;;9.35;1.60;;;;;;;12.51;75.56;102181.09;4967029;28;20034;-77
2022/05/28 06:02:55;;;;;;;8.43;1.83;;;;;;;12.59;74.67;102181.00;4971322;28;20496;-76
2022/05/28 06:05:21;;;;;;;7.30;1.95;;;;;;;12.61;73.81;102182.72;4968656;28;20049;-76
2022/05/28 06:07:46;;;;;;;7.68;1.63;;;;;;;12.63;70.92;102185.28;4965657;28;20034;-77
2022/05/28 06:10:12;;;;;;;6.10;1.70;;;;;;;12.70;76.27;102183.47;4953739;28;20054;-76
2022/05/28 06:12:38;;;;;;;5.93;1.77;;;;;;;12.74;72.83;102182.59;4953081;28;20282;-76
2022/05/28 06:15:04;;;;;;;11.70;1.73;;;;;;;12.74;71.83;102182.59;4952799;28;20081;-76
2022/05/28 06:17:29;;;;;;;11.93;1.90;;;;;;;12.77;72.46;102187.75;4959289;28;20477;-77
2022/05/28 06:19:54;;;;;;;9.65;1.50;;;;;;;12.80;72.22;102190.31;4955537;28;20026;-76
2022/05/28 06:22:20;;;;;;;5.88;1.50;;;;;;;12.87;71.34;102191.97;4969906;28;20027;-76
2022/05/28 06:24:45;;;;;;;11.02;1.95;;;;;;;12.93;70.08;102191.91;4959385;28;20038;-77
2022/05/28 06:27:10;;;;;;;7.00;1.57;;;;;;;12.99;69.61;102190.09;4958605;28;20022;-76
2022/05/28 06:29:36;;;;;;;8.00;1.30;;;;;;;12.99;69.50;102192.69;4955318;28;20295;-77
2022/05/28 06:32:01;;;;;;;7.07;1.50;;;;;;;13.08;69.32;102189.13;4960856;28;20156;-76
2022/05/28 06:34:26;;;;;;;7.32;1.75;;;;;;;13.19;71.96;102205.50;4968967;28;20305;-76
2022/05/28 06:36:53;;;;;;;8.20;1.43;;;;;;;13.23;68.47;102207.19;4968883;28;20035;-76
2022/05/28 06:39:18;;;;;;;7.07;1.38;;;;;;;13.23;69.42;102195.91;4985848;28;20408;-76
2022/05/28 06:41:43;;;;;;;5.63;1.88;;;;;;;13.27;70.29;102203.66;4968731;28;20117;-76
2022/05/28 06:44:09;;;;;;;8.80;1.60;;;;;;;13.41;67.79;102196.53;4968095;28;20053;-76
2022/05/28 06:46:34;;;;;;;5.27;1.30;;;;;;;13.65;64.92;102210.94;4968060;28;20286;-77
2022/05/28 06:48:59;;;;;;;5.70;1.33;;;;;;;13.70;62.99;102206.53;4972329;28;20286;-77
2022/05/28 06:51:25;;;;;;;8.27;1.50;;;;;;;13.78;61.87;102206.44;4970810;28;20289;-77
2022/05/28 06:53:50;;;;;;;8.70;1.50;;;;;;;13.77;63.01;102207.31;4960304;28;20097;-76
2022/05/28 06:56:17;;;;;;;5.28;1.50;;;;;;;13.82;62.34;102201.13;4965077;28;20404;-76
2022/05/28 06:58:46;;;;;;;8.85;1.50;;;;;;;13.94;65.59;102205.28;4964389;28;21205;-77
2022/05/28 07:01:13;;;;;;;6.53;1.40;;;;;;;14.12;63.70;102206.75;4967316;28;20105;-77
2022/05/28 07:03:40;;;;;;;7.60;1.40;;;;;;;14.27;63.01;102208.22;4963306;28;20042;-78
2022/05/28 07:06:06;;;;;;;8.82;1.48;;;;;;;14.39;65.21;102210.69;4966076;28;20031;-77
2022/05/28 07:08:31;;;;;;;9.30;1.80;;;;;;;14.43;60.57;102205.38;4953296;28;20034;-77
2022/05/28 07:10:59;;;;;;;7.97;1.65;;;;;;;14.50;63.12;102208.72;4966370;28;20034;-77
2022/05/28 07:13:26;;;;;;;8.52;1.70;;;;;;;14.75;63.50;102207.38;4961126;28;20491;-78
2022/05/28 07:15:51;;;;;;;8.10;1.70;;;;;;;15.16;62.90;102209.16;4969221;28;20701;-78
2022/05/28 07:18:17;;;;;;;11.20;1.65;;;;;;;15.38;59.50;102214.78;4961206;28;20054;-78
2022/05/28 07:20:43;;;;;;;6.88;1.77;;;;;;;15.47;59.55;102198.06;4972897;28;20592;-78
2022/05/28 07:23:10;;;;;;;5.15;1.15;;;;;;;15.79;59.43;102212.16;4963312;28;20027;-78
2022/05/28 07:25:36;;;;;;;7.93;1.42;;;;;;;16.06;60.27;102202.78;4970191;28;20153;-78
2022/05/28 07:28:24;;;;;;;4.28;1.10;;;;;;;16.03;55.45;102217.69;4970138;28;20058;-78
2022/05/28 07:30:47;;;;;;;5.72;1.50;;;;;;;15.65;55.37;102215.97;4969450;28;20049;-78
2022/05/28 07:33:12;;;;;;;7.32;1.30;;;;;;;15.40;59.82;102213.88;4959900;28;20019;-78
2022/05/28 07:35:38;;;;;;;3.07;1.03;;;;;;;15.16;57.66;102216.13;4966754;28;20033;-79
2022/05/28 07:38:03;;;;;;;7.03;1.37;;;;;;;15.12;59.75;102217.09;4967396;28;20290;-78
2022/05/28 07:40:28;;;;;;;8.27;1.38;;;;;;;15.48;58.38;102218.94;4966554;28;20800;-78
2022/05/28 07:42:53;;;;;;;4.30;1.23;;;;;;;16.06;53.28;102207.16;4967514;28;20020;-78
2022/05/28 07:45:19;;;;;;;7.37;1.40;;;;;;;16.17;56.16;102199.91;4967126;28;20308;-78
2022/05/28 07:47:44;;;;;;;6.30;1.10;;;;;;;17.46;48.63;102205.94;4964001;28;20366;-78
2022/05/28 07:50:09;;;;;;;5.37;1.30;;;;;;;17.74;51.40;102212.91;4961042;28;20018;-79
2022/05/28 07:52:34;;;;;;;4.00;1.07;;;;;;;18.53;49.25;102205.03;4964894;28;20638;-79
2022/05/28 07:55:00;;;;;;;6.70;1.40;;;;;;;19.82;47.85;102203.72;4964854;28;20318;-79
2022/05/28 07:57:25;;;;;;;8.13;1.20;;;;;;;20.94;44.62;102212.06;4967030;28;20473;-79
2022/05/28 07:59:50;;;;;;;7.00;1.40;;;;;;;21.74;43.55;102207.44;4974377;28;20309;-80
2022/05/28 08:02:16;;;;;;;7.07;1.40;;;;;;;22.04;42.26;102207.75;4969273;28;20547;-79
2022/05/28 08:04:41;;;;;;;3.73;0.90;;;;;;;22.00;39.21;102214.97;4973362;28;20140;-80
2022/05/28 08:07:06;;;;;;;5.30;1.30;;;;;;;21.35;41.27;102220.75;4967347;28;20043;-79
2022/05/28 08:09:31;;;;;;;3.53;1.10;;;;;;;21.26;42.72;102206.22;4972230;28;20456;-79
2022/05/28 08:11:57;;;;;;;8.87;1.30;;;;;;;21.37;41.11;102202.19;4968471;28;20290;-79
2022/05/28 08:14:22;;;;;;;5.23;1.10;;;;;;;21.15;39.49;102195.25;4984944;28;20274;-79
2022/05/28 08:16:47;;;;;;;5.93;1.20;;;;;;;21.04;41.11;102199.31;4973257;28;20057;-79
2022/05/28 08:19:13;;;;;;;7.05;1.20;;;;;;;21.01;41.05;102197.69;4970332;28;20037;-80
2022/05/28 08:24:22;;;;;;;5.38;1.35;;;;;;;20.73;38.13;102198.06;4976094;28;20508;-79
2022/05/28 08:26:47;;;;;;;5.60;1.27;;;;;;;20.05;38.97;102201.00;4967861;28;20034;-79
2022/05/28 08:29:13;;;;;;;4.10;1.37;;;;;;;19.36;40.50;102200.25;4970161;28;20350;-79
2022/05/28 08:31:38;;;;;;;7.07;1.60;;;;;;;19.34;43.86;102205.56;4971826;28;20365;-78
2022/05/28 08:34:03;;;;;;;5.83;1.33;;;;;;;19.65;40.23;102202.59;4978661;28;20296;-79
2022/05/28 08:36:29;;;;;;;5.70;1.40;;;;;;;19.87;42.86;102196.47;4972658;28;20027;-79
2022/05/28 08:38:54;;;;;;;8.40;1.40;;;;;;;20.08;39.12;102195.59;4970292;28;20018;-79
2022/05/28 08:41:59;;;;;;;5.30;1.48;;;;;;;20.53;41.17;102190.19;4969760;28;20497;-79
2022/05/28 08:44:28;;;;;;;6.32;1.38;;;;;;;20.33;39.02;102190.19;4942223;29;20051;-78
2022/05/28 08:46:56;;;;;;;4.13;1.23;;;;;;;20.63;39.07;102191.47;4946505;29;20147;-79
2022/05/28 08:49:27;;;;;;;5.25;1.25;;;;;;;20.83;37.69;102187.97;4957285;28;20401;-79
2022/05/28 08:52:04;;;;;;;4.80;1.48;;;;;;;20.90;42.15;102186.75;4980811;28;20022;-79
2022/05/28 08:54:42;;;;;;;5.05;1.50;;;;;;;20.39;43.46;102198.69;4970911;28;20035;-79
2022/05/28 08:57:13;;;;;;;8.07;1.50;;;;;;;19.54;42.15;102196.91;4973081;28;20066;-79
2022/05/28 08:59:54;;;;;;;7.22;1.48;;;;;;;18.99;41.17;102199.91;4970717;28;20035;-79
2022/05/28 09:02:27;;;;;;;6.90;1.40;;;;;;;18.50;42.47;102213.00;4981336;28;20035;-79
2022/05/28 09:04:54;;;;;;;7.18;1.42;;;;;;;18.85;45.09;102211.78;4980623;28;20041;-79
2022/05/28 09:07:20;;;;;;;6.80;1.40;;;;;;;19.41;41.24;102202.69;4972306;28;20118;-79
2022/05/28 09:09:48;;;;;;;6.13;1.30;;;;;;;19.58;39.82;102201.13;4966500;28;20198;-79
2022/05/28 09:12:23;;;;;;;4.25;1.10;;;;;;;19.82;39.74;102188.78;4972130;28;20298;-79
2022/05/28 09:14:49;;;;;;;5.57;1.20;;;;;;;20.15;39.38;102189.16;4971559;28;20305;-79
2022/05/28 09:17:25;;;;;;;6.33;1.50;;;;;;;20.45;39.98;102194.94;4971850;28;20301;-79
2022/05/28 09:19:53;;;;;;;5.97;1.23;;;;;;;20.45;40.18;102184.41;4972947;28;20310;-79
2022/05/28 09:22:20;;;;;;;8.27;1.40;;;;;;;20.21;38.73;102199.41;4971797;28;20027;-79
2022/05/28 09:24:46;;;;;;;5.38;1.70;;;;;;;19.82;40.18;102198.44;4973658;28;20026;-79
2022/05/28 09:27:39;;;;;;;5.18;1.20;;;;;;;19.78;40.15;102186.34;4972514;28;20033;-79
2022/05/28 09:30:14;;;;;;;5.75;1.20;;;;;;;19.90;38.13;102191.09;4973925;28;20073;-78
2022/05/28 09:33:09;;;;;;;4.40;1.13;;;;;;;20.00;38.40;102180.13;4971457;28;20029;-79
2022/05/28 09:35:45;;;;;;;5.82;1.35;;;;;;;19.89;40.42;102178.84;4968740;28;20038;-79
2022/05/28 09:38:24;;;;;;;7.50;1.50;;;;;;;20.15;37.29;102185.66;4964099;28;20018;-78
2022/05/28 09:40:52;;;;;;;4.13;1.20;;;;;;;20.11;40.00;102185.81;4971661;28;20429;-79
2022/05/28 09:43:32;;;;;;;5.68;1.40;;;;;;;19.69;38.77;102188.41;4966268;28;20038;-79
2022/05/28 09:46:17;;;;;;;4.75;1.27;;;;;;;19.06;40.49;102188.25;4997649;28;20042;-79
2022/05/28 09:48:42;;;;;;;4.45;1.20;;;;;;;18.42;41.97;102190.56;4979622;28;20038;-78
2022/05/28 09:51:25;;;;;;;7.13;1.77;;;;;;;18.58;44.45;102186.50;4969503;28;20089;-79
2022/05/28 09:54:18;;;;;;;8.77;1.63;;;;;;;19.23;44.83;102180.59;4972432;28;20035;-78
2022/05/28 09:56:46;;;;;;;5.55;1.65;;;;;;;19.82;41.88;102166.88;4964090;28;20038;-79
2022/05/28 09:59:27;;;;;;;9.20;1.60;;;;;;;20.18;42.05;102172.38;4972911;28;20034;-79
2022/05/28 10:01:54;;;;;;;8.15;1.60;;;;;;;20.01;38.29;102175.72;4975121;28;20026;-78
2022/05/28 10:04:31;;;;;;;6.55;1.77;;;;;;;19.75;38.93;102178.56;4972617;28;20038;-79
2022/05/28 10:07:01;;;;;;;6.32;1.60;;;;;;;20.08;38.58;102171.91;4971423;28;20085;-79
2022/05/28 10:09:31;;;;;;;9.85;1.80;;;;;;;19.75;37.68;102173.28;4972720;28;20042;-78
2022/05/28 10:12:02;;;;;;;7.22;1.63;;;;;;;19.58;39.36;102179.25;4971597;28;20461;-79
2022/05/28 10:14:30;;;;;;;6.93;1.58;;;;;;;19.33;38.99;102171.41;4966745;28;20034;-79
2022/05/28 10:17:01;;;;;;;7.57;1.55;;;;;;;19.19;35.31;102173.72;4968719;28;20034;-79
2022/05/28 10:19:37;;;;;;;4.47;1.52;;;;;;;19.36;37.04;102173.94;4971262;28;20504;-79
2022/05/28 10:22:06;;;;;;;10.88;1.77;;;;;;;19.46;37.34;102159.53;4979713;28;20037;-79
2022/05/28 10:24:42;;;;;;;7.65;1.67;;;;;;;19.51;37.58;102165.50;4971156;28;20034;-79
2022/05/28 10:27:22;;;;;;;7.75;1.70;;;;;;;19.42;37.55;102164.94;4969689;28;20100;-79
2022/05/28 10:29:49;;;;;;;7.60;1.50;;;;;;;19.34;36.37;102157.38;4962302;28;20042;-79
2022/05/28 10:32:33;;;;;;;6.80;1.58;;;;;;;19.40;38.54;102164.16;4980200;28;20042;-79
2022/05/28 10:35:26;;;;;;;7.63;1.70;;;;;;;19.21;39.12;102164.88;4970740;28;20049;-79
2022/05/28 10:38:12;;;;;;;5.82;1.42;;;;;;;18.57;37.92;102173.41;4963018;28;20031;-79
2022/05/28 10:40:46;;;;;;;8.07;1.70;;;;;;;18.41;39.90;102165.22;4971089;28;20145;-79
2022/05/28 10:43:38;;;;;;;7.47;1.40;;;;;;;18.69;37.35;102159.88;4975441;28;20030;-79
2022/05/28 10:46:20;;;;;;;5.05;1.20;;;;;;;18.98;36.84;102162.25;4966893;28;20073;-79
2022/05/28 10:49:30;;;;;;;4.75;1.30;;;;;;;19.30;36.81;102153.16;4972882;28;20035;-85
2022/05/28 10:52:08;;;;;;;7.60;1.50;;;;;;;19.75;35.91;102149.63;4968447;28;20046;-84
2022/05/28 10:54:58;;;;;;;6.35;1.45;;;;;;;20.07;36.27;102151.75;4962599;28;20035;-85
2022/05/28 10:58:07;;;;;;;5.82;1.30;;;;;;;20.08;37.41;102158.75;4962810;28;20395;-85
2022/05/28 11:00:51;;;;;;;7.03;1.48;;;;;;;19.92;38.07;102150.66;4966377;28;20529;-84
2022/05/28 11:03:33;;;;;;;6.78;1.40;;;;;;;20.03;39.27;102160.72;4975456;28;20039;-85
2022/05/28 11:06:14;;;;;;;9.05;1.60;;;;;;;19.66;40.18;102153.47;4971631;28;20051;-85
2022/05/28 11:09:08;;;;;;;7.00;1.83;;;;;;;19.25;39.40;102152.44;4969224;28;20094;-85
2022/05/28 11:11:50;;;;;;;7.00;1.50;;;;;;;19.02;39.52;102148.09;4987052;28;20081;-84
2022/05/28 11:14:18;;;;;;;6.57;1.52;;;;;;;18.53;40.17;102151.63;4969897;28;20026;-85
2022/05/28 11:17:21;;;;;;;6.70;1.70;;;;;;;18.44;39.12;102152.81;4967149;28;20022;-84
2022/05/28 11:20:06;;;;;;;7.18;1.80;;;;;;;18.20;41.50;102152.81;4971335;28;20201;-79
2022/05/28 11:22:37;;;;;;;;;;;;;;;18.14;41.41;102159.16;4971055;28;20031;-79
2022/05/28 11:25:19;;;;;;;7.15;1.67;;;;;;;18.11;40.44;102156.63;4970452;28;19909;-79
2022/05/28 11:27:44;;;;;;;8.43;1.67;;;;;;;18.28;37.66;102146.41;4965949;28;20106;-79
2022/05/28 11:30:17;;;;;;;7.07;1.50;;;;;;;18.60;40.17;102144.44;4969726;28;20347;-79
2022/05/28 11:33:02;;;;;;;8.20;1.70;;;;;;;18.78;36.78;102138.50;4970082;28;20022;-80
2022/05/28 11:35:51;;;;;;;5.63;1.50;;;;;;;18.82;37.67;102137.47;4971894;28;20061;-79
2022/05/28 11:38:22;;;;;;;7.60;1.50;;;;;;;18.76;40.04;102127.19;4969750;28;20100;-79